Time;durP1;ratioP1;P1;durP2;ratioP2;P2;SDS_P1;SDS_P2;PMS_P1;PMS_P2;Temp;Humidity;BMP_temperature;BMP_pressure;BME280_temperature;BME280_humidity;BME280_pressure;Samples;Min_cycle;Max_cycle;Signal;HPM_P1;HPM_P2
2021/11/01 00:01:05;;;;;;;70.10;43.25;;;;;;;12.40;69.02;101161.22;5032633;28;20479;-63
2021/11/01 00:03:32;;;;;;;65.07;41.92;;;;;;;12.39;68.94;101156.88;5034835;28;20055;-60
2021/11/01 00:05:59;;;;;;;63.65;41.38;;;;;;;12.38;68.99;101152.59;5034771;28;20041;-61
2021/11/01 00:08:26;;;;;;;62.05;41.85;;;;;;;12.40;68.92;101158.59;5034829;28;20413;-63
2021/11/01 00:10:53;;;;;;;62.80;43.30;;;;;;;12.42;68.76;101143.56;5034587;28;20456;-62
2021/11/01 00:13:20;;;;;;;61.33;40.65;;;;;;;12.43;68.83;101136.50;5034762;28;20099;-63
2021/11/01 00:15:46;;;;;;;62.63;42.83;;;;;;;12.47;69.04;101133.63;5033983;28;20076;-62
2021/11/01 00:18:13;;;;;;;73.63;44.70;;;;;;;12.49;68.97;101137.00;5034716;28;20073;-61
2021/11/01 00:20:39;;;;;;;74.70;45.70;;;;;;;12.48;69.31;101123.94;5034517;28;20045;-62
2021/11/01 00:23:06;;;;;;;72.18;46.33;;;;;;;12.51;69.47;101126.41;5033619;28;20119;-61
2021/11/01 00:25:33;;;;;;;79.80;51.05;;;;;;;12.52;69.29;101125.44;5034421;28;20042;-63
2021/11/01 00:28:00;;;;;;;81.60;51.08;;;;;;;12.54;69.43;101113.91;5034469;28;20438;-62
2021/11/01 00:30:27;;;;;;;82.10;52.15;;;;;;;12.56;69.78;101113.81;5034447;28;20053;-62
2021/11/01 00:32:54;;;;;;;79.13;51.08;;;;;;;12.56;69.79;101121.72;5033664;28;20516;-62
2021/11/01 00:35:21;;;;;;;86.68;52.83;;;;;;;12.59;69.87;101105.72;5034197;28;20099;-60
2021/11/01 00:37:47;;;;;;;91.00;55.75;;;;;;;12.60;70.10;101094.25;5034199;28;20119;-62
2021/11/01 00:40:14;;;;;;;94.60;57.55;;;;;;;12.64;70.06;101090.50;5034390;28;20049;-61
2021/11/01 00:42:41;;;;;;;97.95;58.35;;;;;;;12.68;70.23;101093.78;5034156;28;20107;-61
2021/11/01 00:45:08;;;;;;;95.30;57.58;;;;;;;12.68;70.52;101096.44;5034218;28;20045;-62
2021/11/01 00:47:36;;;;;;;97.22;59.20;;;;;;;12.70;70.55;101102.47;5033886;28;20045;-62
2021/11/01 00:50:04;;;;;;;95.72;55.88;;;;;;;12.70;70.49;101094.56;5033244;28;20045;-62
2021/11/01 00:52:32;;;;;;;86.38;52.80;;;;;;;12.69;70.75;101098.97;5033888;28;20049;-61
2021/11/01 00:55:01;;;;;;;89.55;52.58;;;;;;;12.69;70.88;101090.22;5034007;28;20108;-62
2021/11/01 00:57:28;;;;;;;85.57;51.80;;;;;;;12.66;71.00;101087.75;5034048;28;20107;-62
2021/11/01 00:59:57;;;;;;;85.57;52.97;;;;;;;12.67;70.99;101092.09;5033722;28;20053;-63
2021/11/01 01:02:25;;;;;;;82.95;50.30;;;;;;;12.67;71.05;101087.69;5033129;28;20045;-62
2021/11/01 01:04:52;;;;;;;78.38;48.25;;;;;;;12.65;71.16;101081.66;5032586;28;20118;-61
2021/11/01 01:07:19;;;;;;;81.00;48.88;;;;;;;12.63;71.10;101077.41;5033421;28;20108;-61
2021/11/01 01:09:47;;;;;;;82.97;51.13;;;;;;;12.64;71.15;101061.53;5033598;28;20041;-63
2021/11/01 01:12:14;;;;;;;88.15;53.10;;;;;;;12.68;71.08;101057.75;5033571;28;20049;-63
2021/11/01 01:14:45;;;;;;;89.75;55.15;;;;;;;12.69;71.04;101054.19;5033494;28;20048;-62
2021/11/01 01:17:12;;;;;;;97.03;56.72;;;;;;;12.72;71.21;101046.13;5033495;28;20049;-62
2021/11/01 01:20:03;;;;;;;100.93;56.58;;;;;;;12.76;71.10;101046.78;5033535;28;20064;-63
2021/11/01 01:22:30;;;;;;;95.03;58.15;;;;;;;12.79;71.26;101040.50;5032701;28;20041;-62
2021/11/01 01:25:17;;;;;;;102.45;59.97;;;;;;;12.81;71.40;101028.06;5033435;28;20049;-63
2021/11/01 01:27:45;;;;;;;103.65;59.85;;;;;;;12.82;71.39;101024.47;5033142;28;20096;-62
2021/11/01 01:30:14;;;;;;;101.20;59.47;;;;;;;12.83;71.30;101019.13;5033416;28;20126;-63
2021/11/01 01:32:43;;;;;;;103.68;59.60;;;;;;;12.86;71.29;101010.19;5033258;28;20462;-62
2021/11/01 01:35:11;;;;;;;105.43;61.10;;;;;;;12.85;71.58;101009.34;5033186;28;20049;-63
2021/11/01 01:37:38;;;;;;;96.70;60.20;;;;;;;12.87;71.50;101007.47;5033053;28;20588;-63
2021/11/01 01:40:06;;;;;;;96.35;58.40;;;;;;;12.87;71.49;101001.34;5031306;28;20095;-63
2021/11/01 01:42:36;;;;;;;100.32;59.40;;;;;;;12.90;71.68;100999.38;5032990;28;20046;-63
2021/11/01 01:45:07;;;;;;;95.85;58.65;;;;;;;12.89;71.64;100992.41;5032934;28;20508;-62
2021/11/01 01:47:34;;;;;;;99.15;59.08;;;;;;;12.89;71.84;100979.22;5032825;28;20050;-63
2021/11/01 01:50:04;;;;;;;98.15;57.38;;;;;;;12.90;71.70;100980.94;5033005;28;20067;-63
2021/11/01 01:52:38;;;;;;;92.05;56.25;;;;;;;12.89;71.89;100979.22;5032852;28;20049;-62
2021/11/01 01:55:18;;;;;;;90.90;56.10;;;;;;;12.89;71.56;100984.50;5032239;28;20060;-63
2021/11/01 01:57:44;;;;;;;92.50;55.05;;;;;;;12.91;71.61;100976.50;5032693;28;20291;-63
2021/11/01 02:03:01;;;;;;;89.43;53.22;;;;;;;12.89;71.55;100973.97;5032811;28;20067;-61
2021/11/01 02:05:41;;;;;;;90.53;53.42;;;;;;;12.90;71.69;100975.66;5032789;28;20049;-61
2021/11/01 02:08:12;;;;;;;89.13;51.72;;;;;;;12.89;71.57;100968.69;5032369;28;20481;-63
2021/11/01 02:10:44;;;;;;;84.70;52.15;;;;;;;12.92;71.47;100967.66;5031912;28;20441;-62
2021/11/01 02:13:25;;;;;;;87.88;53.58;;;;;;;12.92;71.36;100948.38;5032516;28;20095;-62
2021/11/01 02:15:58;;;;;;;89.18;50.85;;;;;;;12.93;71.41;100948.28;5031667;28;20049;-62
2021/11/01 02:18:30;;;;;;;85.63;49.85;;;;;;;12.93;71.50;100944.81;5032430;28;20103;-62
2021/11/01 02:21:03;;;;;;;84.40;50.50;;;;;;;12.93;71.41;100950.91;5032388;28;20490;-63
2021/11/01 02:23:40;;;;;;;88.50;53.00;;;;;;;12.86;71.34;100958.38;5032369;28;20049;-63
2021/11/01 02:26:09;;;;;;;93.45;54.35;;;;;;;12.79;71.72;100959.69;5032573;28;20045;-61
2021/11/01 02:28:38;;;;;;;91.47;55.80;;;;;;;12.79;71.78;100956.22;5031698;28;20111;-61
2021/11/01 02:31:11;;;;;;;96.20;55.67;;;;;;;12.77;71.92;100944.94;5032446;28;20456;-63
2021/11/01 02:33:38;;;;;;;90.93;52.60;;;;;;;12.69;71.99;100951.50;5032413;28;20057;-62
2021/11/01 02:36:06;;;;;;;89.18;53.38;;;;;;;12.63;72.31;100943.97;5032371;28;20046;-62
2021/11/01 02:38:33;;;;;;;89.80;52.22;;;;;;;12.63;72.02;100945.78;5032188;28;20112;-63
2021/11/01 02:41:16;;;;;;;85.70;51.83;;;;;;;12.61;71.81;100938.00;5032336;28;20077;-63
2021/11/01 02:43:55;;;;;;;85.13;50.33;;;;;;;12.65;72.00;100921.06;5031682;28;20107;-61
2021/11/01 02:46:23;;;;;;;86.03;51.65;;;;;;;12.68;71.98;100915.59;5032220;28;20072;-63
2021/11/01 02:48:51;;;;;;;83.35;49.60;;;;;;;12.67;71.70;100918.31;5032182;28;20046;-64
2021/11/01 02:51:27;;;;;;;81.78;51.78;;;;;;;12.65;72.07;100925.47;5032417;28;20069;-62
2021/11/01 02:54:07;;;;;;;83.80;50.00;;;;;;;12.66;71.81;100916.63;5031315;28;20049;-62
2021/11/01 02:56:38;;;;;;;86.53;50.10;;;;;;;12.69;71.59;100908.53;5031807;28;20049;-62
2021/11/01 02:59:05;;;;;;;82.82;50.45;;;;;;;12.69;71.81;100911.19;5032168;28;20223;-63
2021/11/01 03:01:32;;;;;;;83.70;52.05;;;;;;;12.69;71.76;100909.38;5031939;28;20042;-61
2021/11/01 03:03:59;;;;;;;83.55;50.15;;;;;;;12.70;71.62;100915.50;5032135;28;20045;-63
2021/11/01 03:06:28;;;;;;;84.22;51.35;;;;;;;12.70;71.76;100902.34;5031821;28;20100;-61
2021/11/01 03:08:56;;;;;;;86.38;51.35;;;;;;;12.71;71.68;100912.78;5031393;28;20095;-62
2021/11/01 03:11:25;;;;;;;89.43;50.80;;;;;;;12.70;71.88;100902.34;5032184;28;20058;-63
2021/11/01 03:13:52;;;;;;;84.00;50.00;;;;;;;12.71;71.83;100901.41;5031811;28;20107;-62
2021/11/01 03:16:22;;;;;;;85.10;51.80;;;;;;;12.71;72.05;100893.50;5031992;28;20053;-62
2021/11/01 03:19:03;;;;;;;83.30;49.95;;;;;;;12.74;71.81;100890.66;5030567;28;20057;-63
2021/11/01 03:21:33;;;;;;;85.43;50.67;;;;;;;12.74;72.00;100888.03;5032034;28;20049;-62
2021/11/01 03:24:01;;;;;;;84.78;51.38;;;;;;;12.77;72.14;100884.34;5032106;28;20049;-63
2021/11/01 03:26:28;;;;;;;85.68;53.58;;;;;;;12.77;72.21;100887.00;5032157;28;20045;-62
2021/11/01 03:28:59;;;;;;;85.25;51.40;;;;;;;12.78;72.25;100894.78;5034702;28;20050;-61
2021/11/01 03:31:26;;;;;;;85.93;52.90;;;;;;;12.78;72.40;100883.41;5035477;28;20087;-62
2021/11/01 03:33:54;;;;;;;92.68;53.28;;;;;;;12.79;72.20;100879.84;5035252;28;20053;-61
2021/11/01 03:36:22;;;;;;;88.70;51.88;;;;;;;12.79;72.48;100866.69;5035439;28;20115;-62
2021/11/01 03:38:50;;;;;;;89.50;52.20;;;;;;;12.79;72.33;100872.78;5035308;28;20092;-61
2021/11/01 03:41:18;;;;;;;85.25;52.65;;;;;;;12.80;72.49;100873.63;5035215;28;20490;-63
2021/11/01 03:44:15;;;;;;;91.45;53.53;;;;;;;12.78;72.46;100881.63;5035206;28;20050;-61
2021/11/01 03:46:42;;;;;;;91.95;53.97;;;;;;;12.77;72.49;100879.09;5015361;28;20046;-63
2021/11/01 03:49:09;;;;;;;91.15;55.33;;;;;;;12.79;72.60;100883.31;5015555;28;20078;-63
2021/11/01 03:54:09;;;;;;;90.55;55.10;;;;;;;12.78;72.69;100880.78;5015417;28;20050;-63
2021/11/01 03:56:36;;;;;;;91.75;54.85;;;;;;;12.79;72.82;100882.50;5015235;28;20395;-63
2021/11/01 03:59:03;;;;;;;86.57;52.35;;;;;;;12.78;72.88;100888.69;5015314;28;20058;-63
2021/11/01 04:01:30;;;;;;;85.10;52.63;;;;;;;12.77;72.99;100895.72;5015179;28;20054;-61
2021/11/01 04:03:59;;;;;;;88.03;52.03;;;;;;;12.77;73.28;100894.88;5024097;28;20529;-61
2021/11/01 04:06:27;;;;;;;87.32;52.17;;;;;;;12.72;73.55;100889.91;5031341;28;20555;-63
2021/11/01 04:08:56;;;;;;;90.53;52.70;;;;;;;12.76;73.51;100898.47;5030045;28;20107;-62
2021/11/01 04:11:23;;;;;;;90.57;53.33;;;;;;;12.74;73.55;100890.66;5030845;28;20475;-62
2021/11/01 04:13:55;;;;;;;86.75;52.22;;;;;;;12.70;73.77;100887.38;5031484;28;20050;-61
2021/11/01 04:16:25;;;;;;;85.65;51.63;;;;;;;12.73;73.56;100883.69;5031620;28;20053;-62
2021/11/01 04:18:59;;;;;;;97.00;54.15;;;;;;;12.72;73.71;100877.59;5031236;28;20088;-62
2021/11/01 04:21:26;;;;;;;93.07;54.05;;;;;;;12.72;73.84;100877.59;5031457;28;20049;-61
2021/11/01 04:23:55;;;;;;;96.25;56.08;;;;;;;12.72;73.89;100876.75;5031147;28;20440;-62
2021/11/01 04:26:22;;;;;;;93.32;55.50;;;;;;;12.73;73.99;100873.16;5031127;28;20643;-62
2021/11/01 04:28:50;;;;;;;84.55;51.88;;;;;;;12.72;74.05;100876.75;5030269;28;20455;-62
2021/11/01 04:31:24;;;;;;;85.57;51.38;;;;;;;12.71;74.01;100872.44;5031237;28;20045;-63
2021/11/01 04:33:53;;;;;;;90.75;54.03;;;;;;;12.71;74.12;100875.06;5030755;28;20076;-63
2021/11/01 04:36:19;;;;;;;89.63;53.05;;;;;;;12.73;74.01;100867.91;5031120;28;20042;-62
2021/11/01 04:39:02;;;;;;;91.70;54.80;;;;;;;12.72;74.21;100868.84;5030337;28;20053;-63
2021/11/01 04:42:10;;;;;;;88.25;53.25;;;;;;;12.73;74.13;100881.06;5030462;28;20132;-61
2021/11/01 04:53:03;;;;;;;89.30;55.13;;;;;;;12.72;74.35;100866.22;5019993;28;20054;-63
2021/11/01 04:55:30;;;;;;;91.10;55.83;;;;;;;12.71;74.31;100868.00;5030622;28;20095;-63
2021/11/01 04:57:57;;;;;;;95.70;54.47;;;;;;;12.70;74.54;100863.69;5030463;28;20100;-64
2021/11/01 05:00:25;;;;;;;94.10;54.55;;;;;;;12.70;74.59;100861.03;5029807;28;20565;-62
2021/11/01 05:03:32;;;;;;;90.28;54.35;;;;;;;12.71;74.72;100862.75;5030280;28;20055;-61
2021/11/01 05:05:45;;;;;;;93.95;55.30;;;;;;;12.72;74.74;100866.22;5029328;28;20049;-62
2021/11/01 05:08:12;;;;;;;95.80;55.85;;;;;;;12.69;74.88;100861.97;5030500;28;20049;-62
2021/11/01 05:10:41;;;;;;;100.97;59.28;;;;;;;12.69;74.95;100864.63;5030463;28;20498;-62
2021/11/01 05:13:16;;;;;;;95.53;56.95;;;;;;;12.68;74.91;100856.81;5027178;28;20068;-58
2021/11/01 05:15:49;;;;;;;100.75;56.83;;;;;;;12.70;75.06;100853.16;5010452;28;20407;-61
2021/11/01 05:25:54;;;;;;;100.38;56.75;;;;;;;12.70;75.15;100842.63;5029244;28;20860;-60
2021/11/01 05:35:55;;;;;;;93.25;56.85;;;;;;;12.69;75.42;100829.56;5029816;28;20401;-58
2021/11/01 05:38:21;;;;;;;98.18;58.00;;;;;;;12.68;75.73;100827.88;5030259;28;20053;-61
2021/11/01 05:40:48;;;;;;;99.03;58.38;;;;;;;12.68;75.55;100822.59;5029595;28;20554;-61
2021/11/01 05:43:14;;;;;;;98.13;58.20;;;;;;;12.68;75.67;100814.69;5030100;28;20050;-60
2021/11/01 05:45:42;;;;;;;93.18;56.42;;;;;;;12.67;75.66;100811.22;5029659;28;20490;-59
2021/11/01 05:48:08;;;;;;;98.13;58.35;;;;;;;12.66;75.78;100806.03;5029988;28;20061;-60
2021/11/01 05:50:37;;;;;;;99.75;58.47;;;;;;;12.66;75.94;100808.69;5028828;28;20045;-60
2021/11/01 05:53:06;;;;;;;99.10;57.65;;;;;;;12.65;75.67;100807.00;5029658;28;20433;-61
2021/11/01 06:03:48;;;;;;;103.70;60.08;;;;;;;12.67;75.82;100794.56;5037218;28;20747;-61
2021/11/01 06:08:57;;;;;;;105.80;60.65;;;;;;;12.66;75.67;100799.00;5029409;28;20486;-60
2021/11/01 06:13:55;;;;;;;100.38;58.72;;;;;;;12.66;76.02;100793.75;5011115;28;20053;-61
2021/11/01 06:16:22;;;;;;;100.97;60.53;;;;;;;12.66;75.86;100787.63;5028691;28;20521;-60
2021/11/01 06:18:49;;;;;;;101.80;60.38;;;;;;;12.66;76.24;100784.97;5029059;28;20489;-60
2021/11/01 06:21:17;;;;;;;101.18;58.03;;;;;;;12.65;75.99;100785.94;5029109;28;20111;-60
2021/11/01 06:23:52;;;;;;;99.53;59.88;;;;;;;12.65;76.18;100778.06;5029373;28;20057;-60
2021/11/01 06:26:19;;;;;;;96.20;57.40;;;;;;;12.63;76.22;100769.41;5029299;28;20053;-59
2021/11/01 06:28:50;;;;;;;94.45;56.60;;;;;;;12.62;76.09;100772.97;5029222;28;20046;-60
2021/11/01 06:31:23;;;;;;;93.45;55.58;;;;;;;12.63;75.94;100772.03;5029182;28;20100;-60
2021/11/01 06:39:25;;;;;;;91.70;54.83;;;;;;;12.61;76.07;100766.88;5029022;28;19975;-62
2021/11/01 06:45:13;;;;;;;88.38;53.13;;;;;;;12.58;76.11;100767.91;5029106;28;20139;-63
2021/11/01 06:56:04;;;;;;;91.88;54.95;;;;;;;12.58;75.95;100762.66;5028609;28;20469;-63
2021/11/01 06:58:38;;;;;;;92.28;54.33;;;;;;;12.59;76.11;100755.59;5028896;28;20421;-61
2021/11/01 07:17:34;;;;;;;89.60;54.00;;;;;;;12.58;76.17;100759.16;5032545;28;20052;-62
2021/11/01 08:39:19;;;;;;;66.47;42.20;;;;;;;12.69;75.97;100648.72;5030918;28;20049;-61
2021/11/01 09:21:39;;;;;;;53.17;34.00;;;;;;;12.73;75.78;100583.53;5029765;28;20045;-66
2021/11/01 09:26:39;;;;;;;50.80;32.83;;;;;;;12.69;76.01;100584.72;5029573;28;20053;-62
2021/11/01 09:37:53;;;;;;;58.42;34.00;;;;;;;12.70;75.83;100589.03;5027373;28;20490;-62
2021/11/01 09:43:04;;;;;;;55.60;34.15;;;;;;;12.75;75.57;100581.66;5029213;28;20041;-62
2021/11/01 09:45:35;;;;;;;57.67;35.60;;;;;;;12.71;75.95;100564.38;5026192;28;20041;-61
2021/11/01 09:48:04;;;;;;;56.55;35.47;;;;;;;12.66;75.86;100553.31;5028750;28;20398;-62
2021/11/01 09:50:32;;;;;;;55.83;35.78;;;;;;;12.65;75.83;100555.09;5029050;28;20083;-63
2021/11/01 09:53:06;;;;;;;58.53;35.35;;;;;;;12.63;75.77;100538.56;5052485;28;20053;-65
2021/11/01 10:01:12;;;;;;;53.85;33.85;;;;;;;12.72;75.60;100523.94;5028475;28;20136;-62
2021/11/01 10:03:42;;;;;;;56.10;34.03;;;;;;;12.72;75.37;100518.66;5026806;28;20441;-63
2021/11/01 10:06:16;;;;;;;50.30;33.05;;;;;;;12.69;75.58;100521.53;5028516;28;20053;-62
2021/11/01 10:09:12;;;;;;;51.63;32.70;;;;;;;12.67;75.31;100510.25;5022228;28;20053;-60
2021/11/01 10:11:44;;;;;;;;;;;;;;;12.66;75.35;100505.91;5023972;28;20546;-61
2021/11/01 10:14:12;;;;;;;53.65;31.52;;;;;;;12.67;75.31;100499.72;5028043;28;19921;-60
2021/11/01 10:19:37;;;;;;;51.58;32.58;;;;;;;12.67;75.17;100484.78;5027964;28;20113;-60
2021/11/01 10:22:27;;;;;;;51.40;33.20;;;;;;;12.67;74.99;100466.34;5028119;28;20478;-59
2021/11/01 10:24:56;;;;;;;53.65;33.53;;;;;;;12.70;75.08;100457.38;5028875;28;20975;-60
2021/11/01 10:27:36;;;;;;;50.55;32.95;;;;;;;12.70;75.01;100455.59;5028655;28;20050;-62
2021/11/01 10:30:12;;;;;;;54.22;34.20;;;;;;;12.70;74.87;100449.50;5027195;28;20053;-63
2021/11/01 10:32:44;;;;;;;53.55;32.40;;;;;;;12.66;75.22;100448.00;5028621;28;20049;-63
2021/11/01 10:35:20;;;;;;;46.60;30.38;;;;;;;12.66;75.06;100433.06;5028930;28;20053;-59
2021/11/01 11:14:05;;;;;;;45.85;29.05;;;;;;;12.64;74.71;100366.50;5026680;28;20373;-60
2021/11/01 11:47:07;;;;;;;38.42;24.88;;;;;;;12.62;74.02;100267.53;5026975;28;20437;-59
2021/11/01 11:49:34;;;;;;;35.92;25.02;;;;;;;12.63;73.94;100267.44;5029728;28;20107;-59
2021/11/01 11:52:22;;;;;;;35.63;24.25;;;;;;;12.61;74.12;100261.44;5030377;28;20042;-59
2021/11/01 11:54:57;;;;;;;34.92;24.00;;;;;;;12.62;74.06;100252.63;5031380;28;20461;-58
2021/11/01 11:57:25;;;;;;;34.47;23.57;;;;;;;12.61;73.92;100247.44;5031357;28;20045;-61
2021/11/01 11:59:54;;;;;;;36.90;24.45;;;;;;;12.61;74.15;100248.28;5031286;28;21113;-61
2021/11/01 12:02:39;;;;;;;34.53;23.23;;;;;;;12.65;74.07;100241.00;5031267;28;20478;-65
2021/11/01 12:05:39;;;;;;;33.05;22.08;;;;;;;12.61;73.95;100219.34;5021070;28;20144;-61
2021/11/01 12:11:35;;;;;;;33.80;21.65;;;;;;;12.63;73.94;100206.06;4988650;28;20342;-61
2021/11/01 12:17:07;;;;;;;29.98;20.60;;;;;;;12.62;73.90;100202.59;5008754;28;20046;-60
2021/11/01 12:19:35;;;;;;;31.40;21.10;;;;;;;12.62;73.89;100180.69;5026969;28;20926;-62
2021/11/01 12:22:09;;;;;;;27.75;20.05;;;;;;;12.62;74.17;100191.22;5031474;28;20041;-59
2021/11/01 12:24:36;;;;;;;27.25;18.90;;;;;;;12.62;74.10;100181.53;5031093;28;20072;-59
2021/11/01 12:27:07;;;;;;;26.25;18.13;;;;;;;12.63;74.24;100171.84;5030715;28;20426;-59
2021/11/01 12:29:35;;;;;;;25.77;18.48;;;;;;;12.62;73.97;100165.75;5031198;28;20111;-63
2021/11/01 12:32:07;;;;;;;23.83;18.05;;;;;;;12.63;74.28;100161.31;5031449;28;20046;-60
2021/11/01 12:34:46;;;;;;;24.10;17.73;;;;;;;12.62;74.38;100162.25;5030708;28;20049;-60
2021/11/01 12:37:21;;;;;;;25.10;18.45;;;;;;;12.61;74.26;100157.94;5031100;28;20057;-60
2021/11/01 12:39:54;;;;;;;24.02;17.38;;;;;;;12.59;74.55;100150.16;5030971;28;20050;-60
2021/11/01 12:58:58;;;;;;;15.23;12.00;;;;;;;12.61;74.42;100106.16;5029351;28;20042;-62
2021/11/01 13:01:28;;;;;;;14.73;11.18;;;;;;;12.60;74.64;100106.28;5062010;28;20045;-61
2021/11/01 13:04:09;;;;;;;14.70;10.90;;;;;;;12.59;74.51;100094.91;5029618;28;20465;-62
2021/11/01 13:09:40;;;;;;;15.25;11.95;;;;;;;12.53;74.63;100083.06;5017143;28;20049;-62
2021/11/01 13:12:35;;;;;;;16.93;12.20;;;;;;;12.53;74.79;100088.31;5030180;28;20056;-61
2021/11/01 13:20:22;;;;;;;17.52;13.13;;;;;;;12.52;75.11;100069.97;5030082;28;20478;-60
2021/11/01 13:22:54;;;;;;;15.02;11.38;;;;;;;12.47;75.44;100046.66;5029885;28;20056;-59
2021/11/01 13:38:44;;;;;;;16.08;11.73;;;;;;;12.34;76.50;100028.34;5028505;28;20084;-62
2021/11/01 13:41:16;;;;;;;12.93;10.38;;;;;;;12.33;76.75;100023.19;5029302;28;20053;-63
2021/11/01 13:43:46;;;;;;;13.10;10.65;;;;;;;12.29;76.96;100021.75;5019117;28;20042;-63
2021/11/01 13:46:14;;;;;;;11.93;9.55;;;;;;;12.27;76.95;100000.00;5029468;28;20042;-61
2021/11/01 13:48:41;;;;;;;13.52;10.35;;;;;;;12.26;77.16;99999.13;5028944;28;20119;-60
2021/11/01 13:51:12;;;;;;;11.95;8.45;;;;;;;12.26;77.33;99996.50;5029526;28;20049;-60
2021/11/01 13:54:11;;;;;;;11.70;9.45;;;;;;;12.24;77.37;99983.47;5029106;28;20127;-62
2021/11/01 13:56:46;;;;;;;11.75;8.60;;;;;;;12.26;77.63;99978.09;5028522;28;20042;-62
2021/11/01 14:13:23;;;;;;;7.78;6.40;;;;;;;12.21;77.93;99936.38;5025861;28;20565;-62
2021/11/01 14:32:41;;;;;;;5.75;4.60;;;;;;;12.17;78.62;99897.25;5026945;28;20049;-60
2021/11/01 15:21:24;;;;;;;1.55;1.27;;;;;;;12.15;79.87;99788.69;4949534;28;20101;-63
2021/11/01 15:24:11;;;;;;;1.52;1.23;;;;;;;12.15;79.97;99775.56;4952488;28;20487;-64
2021/11/01 15:29:42;;;;;;;1.67;1.15;;;;;;;12.15;80.13;99771.16;4953608;28;20043;-63
2021/11/01 16:18:46;;;;;;;46.83;30.05;;;;;;;12.38;80.62;99786.91;4955652;28;20055;-63
2021/11/01 16:21:13;;;;;;;8.77;7.35;;;;;;;12.35;80.50;99801.09;4951399;28;20404;-64
2021/11/01 16:23:41;;;;;;;21.70;14.50;;;;;;;12.38;80.76;99810.59;4955169;28;20131;-63
2021/11/01 16:26:35;;;;;;;34.10;22.48;;;;;;;12.39;80.91;99806.97;4956625;28;20047;-62
2021/11/01 16:29:09;;;;;;;12.52;5.50;;;;;;;12.36;81.00;99808.06;4950411;28;20043;-63
2021/11/01 16:31:49;;;;;;;11.95;7.25;;;;;;;12.40;81.03;99800.75;4954780;28;20064;-62
2021/11/01 16:39:25;;;;;;;53.63;38.88;;;;;;;12.51;81.37;99815.69;4952570;28;20439;-64
2021/11/01 16:41:53;;;;;;;70.28;41.17;;;;;;;12.51;81.60;99813.06;4952136;28;20066;-67
2021/11/01 16:44:31;;;;;;;60.05;33.65;;;;;;;12.48;81.57;99829.94;4949047;28;20043;-66
2021/11/01 16:46:59;;;;;;;85.57;51.30;;;;;;;12.43;81.61;99837.38;4952058;29;20054;-65
2021/11/01 16:49:31;;;;;;;69.30;39.20;;;;;;;12.43;81.72;99840.00;4952644;28;20074;-67
2021/11/01 16:52:08;;;;;;;72.43;42.33;;;;;;;12.42;81.95;99840.94;4951247;28;20121;-63
2021/11/01 16:54:36;;;;;;;108.25;59.47;;;;;;;12.45;81.92;99835.44;4953829;28;20055;-64
2021/11/01 16:57:35;;;;;;;61.25;38.38;;;;;;;12.41;81.98;99824.31;4954088;28;20047;-64
2021/11/01 17:05:12;;;;;;;88.35;49.58;;;;;;;12.36;81.96;99808.06;4956658;28;20039;-64
2021/11/01 17:24:14;;;;;;;69.15;41.92;;;;;;;12.38;82.20;99753.53;4951755;28;20333;-67
2021/11/01 18:39:53;;;;;;;6.50;4.53;;;;;;;12.55;82.79;99553.97;4949800;28;20058;-65
2021/11/01 18:42:42;;;;;;;7.95;4.55;;;;;;;12.54;82.77;99423.34;4950566;29;20051;-65
2021/11/01 18:51:04;;;;;;;3.08;1.60;;;;;;;12.58;82.92;99295.78;4924127;29;20048;-62
2021/11/01 18:53:39;;;;;;;1.63;1.20;;;;;;;12.61;82.87;99350.81;4949729;28;20051;-64
2021/11/01 18:56:09;;;;;;;2.30;1.05;;;;;;;12.66;82.95;99403.03;4948286;28;20091;-65
2021/11/01 18:58:39;;;;;;;22.25;13.25;;;;;;;12.69;83.09;99434.34;4934963;29;20566;-64
2021/11/01 19:01:12;;;;;;;8.88;4.85;;;;;;;12.73;83.04;99465.56;4953733;29;20067;-64
2021/11/01 19:03:43;;;;;;;2.38;1.73;;;;;;;12.71;83.22;99520.13;4953683;28;20083;-64
2021/11/01 20:05:29;;;;;;;2.45;2.08;;;;;;;12.71;82.14;99620.13;4955163;28;20043;-65
2021/11/01 21:25:50;;;;;;;6.38;4.97;;;;;;;12.28;80.57;99586.88;4952841;28;20534;-64
2021/11/01 21:28:18;;;;;;;4.20;3.30;;;;;;;12.26;80.60;99586.16;4955013;28;20047;-64
2021/11/01 21:30:45;;;;;;;5.15;3.55;;;;;;;12.22;80.42;99596.09;4952615;28;20058;-64
2021/11/01 21:33:19;;;;;;;5.72;4.10;;;;;;;12.17;80.23;99606.16;4951212;28;20055;-65
2021/11/01 21:35:49;;;;;;;4.30;3.55;;;;;;;12.16;80.01;99604.47;4953428;28;20060;-64
2021/11/01 21:38:16;;;;;;;3.35;3.05;;;;;;;12.12;79.74;99605.69;4951412;28;20488;-66
2021/11/01 21:40:44;;;;;;;4.57;2.90;;;;;;;12.10;79.93;99615.53;4943097;28;20488;-65
2021/11/01 21:43:11;;;;;;;5.25;4.22;;;;;;;12.06;79.76;99616.72;4951487;29;20054;-65
2021/11/01 21:45:43;;;;;;;8.90;6.28;;;;;;;12.03;79.63;99614.34;4951492;28;20051;-65
2021/11/01 21:48:09;;;;;;;9.55;7.63;;;;;;;12.02;79.78;99616.13;4950923;29;20472;-66
2021/11/01 21:50:36;;;;;;;9.82;8.23;;;;;;;12.00;79.90;99611.94;4951338;28;20077;-66
2021/11/01 21:53:05;;;;;;;11.73;9.07;;;;;;;11.98;79.90;99603.38;4950490;28;20062;-66
2021/11/01 21:55:33;;;;;;;13.57;10.32;;;;;;;11.96;79.92;99605.28;4950058;29;20054;-65
2021/11/01 21:58:15;;;;;;;11.93;9.27;;;;;;;11.93;80.06;99594.03;4948728;29;20078;-65
2021/11/01 22:20:05;;;;;;;17.35;13.43;;;;;;;11.79;80.55;99582.94;4950627;29;20070;-66
2021/11/01 22:25:19;;;;;;;20.65;14.48;;;;;;;11.76;80.58;99597.19;4950882;28;20048;-66
2021/11/01 22:39:01;;;;;;;23.33;16.80;;;;;;;11.70;80.84;99598.50;4950788;29;20047;-66
2021/11/01 22:42:27;;;;;;;20.55;15.48;;;;;;;11.70;81.07;99597.66;4950678;28;20063;-65
2021/11/01 22:57:45;;;;;;;20.23;15.52;;;;;;;11.65;81.17;99589.31;4950137;28;20051;-65
2021/11/01 23:00:23;;;;;;;23.30;16.90;;;;;;;11.65;81.23;99595.38;4949830;28;20059;-66
2021/11/01 23:02:58;;;;;;;21.85;16.85;;;;;;;11.62;81.28;99600.91;4945257;28;20047;-66
2021/11/01 23:05:39;;;;;;;23.42;17.88;;;;;;;11.64;81.30;99608.66;4950560;28;20049;-66
2021/11/01 23:32:54;;;;;;;18.20;13.85;;;;;;;11.52;81.33;99608.66;4950052;28;20500;-65
2021/11/01 23:35:21;;;;;;;16.92;13.30;;;;;;;11.52;81.27;99607.84;4945463;28;20092;-65
2021/11/01 23:37:47;;;;;;;17.33;13.65;;;;;;;11.53;81.21;99607.72;4944139;29;20546;-66
2021/11/01 23:40:14;;;;;;;15.52;13.25;;;;;;;11.50;81.34;99610.56;4949718;28;20043;-66
2021/11/01 23:42:41;;;;;;;15.57;12.30;;;;;;;11.49;81.26;99595.78;4949389;28;20062;-65
2021/11/01 23:45:08;;;;;;;17.60;13.77;;;;;;;11.49;81.26;99594.94;4952554;28;20043;-66
2021/11/01 23:47:35;;;;;;;14.38;12.23;;;;;;;11.46;81.15;99588.13;4953543;28;20043;-66
2021/11/01 23:50:02;;;;;;;16.58;11.57;;;;;;;11.40;81.23;99586.00;4953224;28;20082;-66
2021/11/01 23:52:37;;;;;;;15.18;12.07;;;;;;;11.40;81.28;99584.22;4951619;28;20059;-66
2021/11/01 23:55:05;;;;;;;14.57;11.30;;;;;;;11.38;81.28;99594.00;4949401;29;20465;-65
2021/11/01 23:57:32;;;;;;;16.00;12.07;;;;;;;11.37;81.16;99584.44;4953384;28;20069;-66
2021/11/01 23:59:59;;;;;;;13.65;10.68;;;;;;;11.36;81.15;99588.03;4953393;28;20408;-66
